KWLD

Strother Field Airport

Winfield/Arkansas City, Kansas, USA
METAR KWLD 210054Z AUTO 07004KT 10SM CLR 01/M04 A3017 RMK AO2 SLP229 T00111039
Observed Flight Rules
Jan-21 @ 00:54 UTC (34 minutes ago) Visual Flight Rules
Wind Visibility Clouds
70° at 4 knots 10 miles
  • Clear skies
Temperatures Readings
Current 1°C / 34°F
Dewpoint -4°C / 25°F
Humidity 70%
Altimeter 30.17" Hg
Pressure 1022.9 hPa
Elevation 350
METAR KWLD 210054Z AUTO 07004KT 10SM CLR 01/M04 A3017 RMK AO2 SLP229 T00111039
Observed Flight Rules
Jan-21 @ 00:54 UTC
(34 minutes ago)
VFR
Wind Visibility
70° at 4 knots 10 miles
Clouds
  • Clear skies
Temperature Dewpoint
1°C / 34°F -4°C / 25°F
Humidity Altimeter Pressure
70% 30.17" Hg 1022.9 hPa